M I D A S
Marine Information and Data Acquisition System
Tripno 1510 of the Zeeleeuw from 2008-06-25 06:06:34 to 2008-06-25 12:09:04
Back to CruiseResearch ActivitiesStationsMapUnderway DataData graphs

EquipmentUnitsComment
TimeDGPSUTC
LatitudeDGPSDM.mWGS84
LongitudeDGPSDM.mWGS84
HeadingGyrodeg 
SOGDGPSknotsSpeed over ground
COGDGPSdegCourse over ground
DepthEcho soundermeters200 kHz
Missing or incorrect values are displayed as -999
Navigation data collected by the RV Zeeleeuw from 2008-06-25 06:06:44 to 2008-06-25 12:12:41
                                                                                    Next 1000 lines
Time Latitude Longitude Heading SOG COG Depth
2008-06-25 06:06:54 51°13.625 2°56.044 113.9 1.3 292 -999
2008-06-25 06:06:59 51°13.625 2°56.04 113.9 1.8 295 -999
2008-06-25 06:07:04 51°13.627 2°56.036 114.8 2.3 295 -999
2008-06-25 06:07:09 51°13.628 2°56.031 115.8 2.6 296 4.7
2008-06-25 06:07:14 51°13.63 2°56.026 116.7 2.8 298 -999
2008-06-25 06:07:19 51°13.632 2°56.02 117.1 3.1 299 -999
2008-06-25 06:07:24 51°13.635 2°56.013 117.1 3.5 300 -999
2008-06-25 06:07:29 51°13.637 2°56.006 117.1 3.8 299 -999
2008-06-25 06:07:34 51°13.639 2°55.998 117.3 4 299 -999
2008-06-25 06:07:39 51°13.642 2°55.99 117.4 4.2 299 -999
2008-06-25 06:07:44 51°13.645 2°55.982 117.5 4.3 299 -999
2008-06-25 06:07:49 51°13.648 2°55.973 117.5 4.5 298 -999
2008-06-25 06:07:54 51°13.651 2°55.964 117.3 4.6 298 -999
2008-06-25 06:07:59 51°13.654 2°55.955 116.9 4.7 297 -999
2008-06-25 06:08:04 51°13.657 2°55.946 116.8 4.7 297 -999
2008-06-25 06:08:09 51°13.66 2°55.936 116.8 4.7 297 -999
2008-06-25 06:08:14 51°13.663 2°55.927 117.4 4.8 297 -999
2008-06-25 06:08:19 51°13.666 2°55.917 118.3 4.9 297 -999
2008-06-25 06:08:24 51°13.67 2°55.908 119.4 5 299 -999
2008-06-25 06:08:29 51°13.673 2°55.898 120.5 5.1 300 -999
2008-06-25 06:08:34 51°13.677 2°55.888 121.8 5.2 301 -999
2008-06-25 06:08:39 51°13.68 2°55.878 122.7 5.2 302 -999
2008-06-25 06:08:44 51°13.684 2°55.869 123.7 5.2 303 -999
2008-06-25 06:08:49 51°13.688 2°55.859 124.6 5.3 304 -999
2008-06-25 06:08:54 51°13.692 2°55.85 125.1 5.3 305 -999
2008-06-25 06:08:59 51°13.697 2°55.84 125.6 5.3 306 -999
2008-06-25 06:09:04 51°13.701 2°55.83 126 5.4 306 -999
2008-06-25 06:09:09 51°13.705 2°55.821 126.3 5.4 306 -999
2008-06-25 06:09:14 51°13.71 2°55.811 126.7 5.4 306 -999
2008-06-25 06:09:19 51°13.714 2°55.802 126.9 5.5 307 -999
2008-06-25 06:09:24 51°13.719 2°55.792 127 5.5 307 -999
2008-06-25 06:09:29 51°13.723 2°55.782 127.2 5.6 307 -999
2008-06-25 06:09:34 51°13.728 2°55.772 127.4 5.6 307 -999
2008-06-25 06:09:39 51°13.733 2°55.763 127.8 5.6 308 -999
2008-06-25 06:09:44 51°13.737 2°55.753 128.6 5.5 308 -999
2008-06-25 06:09:49 51°13.742 2°55.744 129.9 5.5 310 -999
2008-06-25 06:09:54 51°13.747 2°55.734 131.3 5.5 311 -999
2008-06-25 06:09:59 51°13.752 2°55.725 132.7 5.5 312 -999
2008-06-25 06:10:04 51°13.758 2°55.716 134.4 5.5 313 -999
2008-06-25 06:10:09 51°13.763 2°55.708 136.1 5.5 315 -999
2008-06-25 06:10:14 51°13.768 2°55.7 137.7 5.5 316 -999
2008-06-25 06:10:19 51°13.774 2°55.691 139.6 5.4 318 -999
2008-06-25 06:10:24 51°13.78 2°55.684 141.8 5.5 320 -999
2008-06-25 06:10:29 51°13.785 2°55.676 144.3 5.4 323 -999
2008-06-25 06:10:34 51°13.792 2°55.669 146.8 5.4 325 -999
2008-06-25 06:10:39 51°13.798 2°55.663 149.4 5.4 328 -999
2008-06-25 06:10:44 51°13.804 2°55.657 152.1 5.4 330 -999
2008-06-25 06:10:49 51°13.811 2°55.651 154.9 5.4 333 -999
2008-06-25 06:10:54 51°13.818 2°55.646 157.6 5.4 336 -999
2008-06-25 06:10:59 51°13.825 2°55.641 160.4 5.4 338 -999
2008-06-25 06:11:04 51°13.832 2°55.637 163.2 5.3 341 -999
2008-06-25 06:11:09 51°13.839 2°55.634 166.1 5.3 344 -999
2008-06-25 06:11:14 51°13.846 2°55.631 169.5 5.2 347 -999
2008-06-25 06:11:19 51°13.853 2°55.629 173.1 5.1 350 -999
2008-06-25 06:11:24 51°13.86 2°55.628 176.7 5.1 354 -999
2008-06-25 06:11:29 51°13.866 2°55.627 180.2 5 357 -999
2008-06-25 06:11:34 51°13.873 2°55.628 183.8 5 1 -999
2008-06-25 06:11:39 51°13.88 2°55.628 187.2 4.9 4 -999
2008-06-25 06:11:44 51°13.887 2°55.629 190.7 4.9 7 -999
2008-06-25 06:11:49 51°13.893 2°55.631 194.4 4.9 11 -999
2008-06-25 06:11:54 51°13.9 2°55.634 198.2 4.8 15 -999
2008-06-25 06:11:59 51°13.906 2°55.637 202.2 4.8 19 -999
2008-06-25 06:12:04 51°13.912 2°55.641 205.3 4.6 23 -999
2008-06-25 06:12:09 51°13.918 2°55.646 210.1 4.3 25 -999
2008-06-25 06:12:14 51°13.923 2°55.65 213.3 4 28 -999
2008-06-25 06:12:19 51°13.927 2°55.654 215.7 3.8 30 -999
2008-06-25 06:12:24 51°13.932 2°55.658 217.6 3.4 32 -999
2008-06-25 06:12:29 51°13.935 2°55.662 220.5 2.9 34 -999
2008-06-25 06:12:34 51°13.938 2°55.664 223.2 1.9 31 -999
2008-06-25 06:12:39 51°13.939 2°55.665 226.6 0.8 18 -999
2008-06-25 06:12:44 51°13.939 2°55.664 231.1 0.6 311 12.8
2008-06-25 06:12:49 51°13.939 2°55.662 236.7 1.3 265 -999
2008-06-25 06:12:54 51°13.939 2°55.657 245.3 2.1 267 12.8
2008-06-25 06:12:59 51°13.939 2°55.651 254.8 2.8 271 -999
2008-06-25 06:13:04 51°13.94 2°55.644 264.5 3.3 279 4.8
2008-06-25 06:13:09 51°13.941 2°55.636 272.5 3.8 287 12.7
2008-06-25 06:13:14 51°13.944 2°55.628 282.4 4.4 297 12.8
2008-06-25 06:13:19 51°13.947 2°55.619 292.2 4.6 303 -999
2008-06-25 06:13:24 51°13.951 2°55.611 300.7 4.5 308 12.8
2008-06-25 06:13:29 51°13.955 2°55.604 307.3 4.6 311 12.8
2008-06-25 06:13:34 51°13.96 2°55.595 310.9 5.2 313 12.8
2008-06-25 06:13:39 51°13.966 2°55.586 314.4 5.9 317 12.8
2008-06-25 06:13:44 51°13.972 2°55.577 316.2 6.5 318 12.8
2008-06-25 06:13:49 51°13.98 2°55.567 317.8 6.9 320 12.8
2008-06-25 06:13:54 51°13.988 2°55.557 319.5 7.4 321 12.8
2008-06-25 06:13:59 51°13.996 2°55.546 320.8 7.7 322 12.7
2008-06-25 06:14:04 51°14.005 2°55.535 322.7 8.2 323 12.7
2008-06-25 06:14:09 51°14.015 2°55.525 324.2 8.4 326 12.7
2008-06-25 06:14:14 51°14.025 2°55.514 325.8 8.7 325 -999
2008-06-25 06:14:19 51°14.035 2°55.503 326.1 8.9 328 12.7
2008-06-25 06:14:24 51°14.046 2°55.493 327.7 9.1 329 12.7
2008-06-25 06:14:29 51°14.057 2°55.482 329.6 9.3 328 12.7
2008-06-25 06:14:34 51°14.069 2°55.471 330 9.6 331 12.7
2008-06-25 06:14:39 51°14.08 2°55.461 330.9 9.8 329 12.7
2008-06-25 06:14:44 51°14.092 2°55.45 330.9 9.9 330 12.7
2008-06-25 06:14:49 51°14.104 2°55.439 331.3 10 332 12.7
2008-06-25 06:14:54 51°14.117 2°55.429 333.3 10.1 332 12.6
2008-06-25 06:14:59 51°14.129 2°55.417 333.2 10.2 329 12.7
2008-06-25 06:15:04 51°14.141 2°55.406 331.1 10.2 329 12.7
2008-06-25 06:15:09 51°14.153 2°55.393 329.5 10.2 326 12.6
2008-06-25 06:15:14 51°14.164 2°55.38 327.9 10.3 325 12.6
2008-06-25 06:15:19 51°14.176 2°55.366 326.5 10.3 324 12.6
2008-06-25 06:15:24 51°14.187 2°55.353 325.6 10.3 323 12.6
2008-06-25 06:15:29 51°14.199 2°55.339 325 10.3 322 12.6
2008-06-25 06:15:34 51°14.209 2°55.324 323.6 10.4 319 12.6
2008-06-25 06:15:39 51°14.22 2°55.308 321.5 10.4 318 12.6
2008-06-25 06:15:44 51°14.231 2°55.293 319.8 10.5 316 12.4
2008-06-25 06:15:49 51°14.241 2°55.276 318.1 10.6 316 12.6
2008-06-25 06:15:54 51°14.251 2°55.26 317.2 10.6 315 12.4
2008-06-25 06:15:59 51°14.262 2°55.242 315.8 10.8 313 -999
2008-06-25 06:16:04 51°14.272 2°55.224 314.2 11.1 312 -999
2008-06-25 06:16:09 51°14.282 2°55.206 313.6 11.1 312 12.9
2008-06-25 06:16:14 51°14.293 2°55.188 313.6 11.3 311 12.3
2008-06-25 06:16:19 51°14.303 2°55.168 313.1 11.4 311 11.9
2008-06-25 06:16:24 51°14.314 2°55.149 312.5 11.5 311 12.1
2008-06-25 06:16:29 51°14.324 2°55.13 312.8 11.7 310 12.7
2008-06-25 06:16:34 51°14.335 2°55.11 312 11.9 310 12.5
2008-06-25 06:16:39 51°14.346 2°55.089 311.5 11.9 311 12.8
2008-06-25 06:16:44 51°14.356 2°55.069 311.9 12 310 12.7
2008-06-25 06:16:49 51°14.367 2°55.049 311.4 11.9 310 12.7
2008-06-25 06:16:54 51°14.377 2°55.029 310.8 12 309 12.8
2008-06-25 06:16:59 51°14.388 2°55.008 309.8 12 309 12.1
2008-06-25 06:17:04 51°14.399 2°54.987 309.1 12.2 310 12.3
2008-06-25 06:17:09 51°14.41 2°54.967 309.7 12.2 310 12.1
2008-06-25 06:17:14 51°14.421 2°54.947 310.4 12.3 311 12.3
2008-06-25 06:17:19 51°14.432 2°54.926 311.1 12.3 310 12.5
2008-06-25 06:17:24 51°14.442 2°54.905 310 12.3 308 12.6
2008-06-25 06:17:29 51°14.453 2°54.883 307.8 12.3 307 12.8
2008-06-25 06:17:34 51°14.463 2°54.861 306.3 12.3 306 12.6
2008-06-25 06:17:39 51°14.473 2°54.839 304.9 12.2 304 12.3
2008-06-25 06:17:44 51°14.482 2°54.816 303.4 12.3 304 12.4
2008-06-25 06:17:49 51°14.491 2°54.793 301.8 12.3 300 12.6
2008-06-25 06:17:54 51°14.499 2°54.77 299 12.1 300 12.2
2008-06-25 06:17:59 51°14.507 2°54.747 297.6 12.1 299 12.4
2008-06-25 06:18:04 51°14.514 2°54.723 296.7 12 296 12.3
2008-06-25 06:18:09 51°14.521 2°54.699 293.9 12 293 12.2
2008-06-25 06:18:14 51°14.527 2°54.675 291 11.9 293 12.3
2008-06-25 06:18:19 51°14.534 2°54.651 289.5 11.9 294 12.1
2008-06-25 06:18:24 51°14.54 2°54.626 289.9 11.8 293 12.1
2008-06-25 06:18:29 51°14.547 2°54.602 289.6 11.9 292 12.3
2008-06-25 06:18:34 51°14.553 2°54.578 288.8 11.8 292 12.3
2008-06-25 06:18:39 51°14.559 2°54.554 288.8 11.8 292 12.1
2008-06-25 06:18:44 51°14.565 2°54.53 288.6 11.8 291 12.2
2008-06-25 06:18:49 51°14.571 2°54.505 288 11.8 291 12.3
2008-06-25 06:18:54 51°14.577 2°54.481 288 11.8 291 12.3
2008-06-25 06:18:59 51°14.583 2°54.456 288.3 11.9 292 12.3
2008-06-25 06:19:04 51°14.589 2°54.432 289.1 11.9 291 12.5
2008-06-25 06:19:09 51°14.595 2°54.408 289.3 11.8 293 12.9
2008-06-25 06:19:14 51°14.602 2°54.384 290.1 11.9 295 13
2008-06-25 06:19:19 51°14.609 2°54.36 291.6 11.9 296 12.9
2008-06-25 06:19:24 51°14.616 2°54.336 292.7 11.9 295 12.5
2008-06-25 06:19:29 51°14.623 2°54.313 293.1 12 295 12.6
2008-06-25 06:19:34 51°14.631 2°54.289 293.4 11.9 296 12.6
2008-06-25 06:19:39 51°14.638 2°54.265 294 11.9 298 12.7
2008-06-25 06:19:44 51°14.646 2°54.242 295.2 12 297 12.5
2008-06-25 06:19:49 51°14.653 2°54.218 294.8 12 296 12.6
2008-06-25 06:19:54 51°14.66 2°54.194 294.6 12 295 12.5
2008-06-25 06:19:59 51°14.667 2°54.17 294.1 12 297 12.7
2008-06-25 06:20:04 51°14.675 2°54.146 294.4 12 296 12.7
2008-06-25 06:20:09 51°14.682 2°54.123 294.5 11.9 297 12.7
2008-06-25 06:20:14 51°14.688 2°54.098 294.9 11.9 292 12.6
2008-06-25 06:20:19 51°14.694 2°54.074 291.3 11.8 291 12.6
2008-06-25 06:20:24 51°14.699 2°54.049 288.8 11.8 288 12.9
2008-06-25 06:20:29 51°14.704 2°54.024 286 11.8 286 12.5
2008-06-25 06:20:34 51°14.708 2°53.999 283.9 11.8 284 13.1
2008-06-25 06:20:39 51°14.712 2°53.973 282.4 11.7 283 13.2
2008-06-25 06:20:44 51°14.715 2°53.948 281.2 11.6 280 12.6
2008-06-25 06:20:49 51°14.716 2°53.923 277.9 11.6 275 12.7
2008-06-25 06:20:54 51°14.718 2°53.897 274.2 11.6 275 12.5
2008-06-25 06:20:59 51°14.717 2°53.872 272 11.5 271 12.6
2008-06-25 06:21:04 51°14.719 2°53.847 269.6 11.5 273 12.5
2008-06-25 06:21:09 51°14.717 2°53.821 268.9 11.5 266 12.3
2008-06-25 06:21:14 51°14.717 2°53.796 266.7 11.5 267 12
2008-06-25 06:21:19 51°14.716 2°53.77 265.3 11.6 265 12.3
2008-06-25 06:21:24 51°14.715 2°53.744 264.6 11.7 266 12.3
2008-06-25 06:21:29 51°14.714 2°53.718 264.6 11.7 268 12.1
2008-06-25 06:21:34 51°14.713 2°53.693 265.6 11.7 267 11.6
2008-06-25 06:21:39 51°14.713 2°53.667 266.1 11.8 268 12.2
2008-06-25 06:21:44 51°14.713 2°53.641 266.7 11.8 271 12.2
2008-06-25 06:21:49 51°14.712 2°53.615 268 11.8 269 12.1
2008-06-25 06:21:54 51°14.713 2°53.588 267.8 11.8 272 12.2
2008-06-25 06:21:59 51°14.712 2°53.562 268.8 11.8 269 12.2
2008-06-25 06:22:04 51°14.712 2°53.536 267.9 11.8 269 12.3
2008-06-25 06:22:09 51°14.713 2°53.51 267.8 11.8 272 12.5
2008-06-25 06:22:14 51°14.713 2°53.484 269.6 11.8 271 12.5
2008-06-25 06:22:19 51°14.714 2°53.458 270.4 11.8 274 11.9
2008-06-25 06:22:24 51°14.715 2°53.432 271.2 11.8 273 11.9
2008-06-25 06:22:29 51°14.717 2°53.406 271.5 11.8 275 11.5
2008-06-25 06:22:34 51°14.718 2°53.381 272.6 11.8 274 11.3
2008-06-25 06:22:39 51°14.72 2°53.355 273.2 11.8 275 11.1
2008-06-25 06:22:44 51°14.721 2°53.329 273.4 11.8 276 11.1
2008-06-25 06:22:49 51°14.723 2°53.303 273.9 11.8 275 11
2008-06-25 06:22:54 51°14.724 2°53.277 274 11.8 277 11
2008-06-25 06:22:59 51°14.725 2°53.251 274.7 11.8 275 11
2008-06-25 06:23:04 51°14.727 2°53.225 273.6 11.8 277 10.9
2008-06-25 06:23:09 51°14.729 2°53.199 274.2 11.8 274 10.9
2008-06-25 06:23:14 51°14.731 2°53.173 273.5 11.9 278 11
2008-06-25 06:23:19 51°14.732 2°53.147 274.7 11.8 276 10.9
2008-06-25 06:23:24 51°14.735 2°53.121 274.9 11.8 278 10.9
2008-06-25 06:23:29 51°14.737 2°53.096 275.7 11.8 278 10.9
2008-06-25 06:23:34 51°14.739 2°53.07 276.7 11.9 279 11
2008-06-25 06:23:39 51°14.742 2°53.044 277.3 11.9 278 11.1
2008-06-25 06:23:44 51°14.745 2°53.018 277.7 11.9 279 11.1
2008-06-25 06:23:49 51°14.748 2°52.992 277.6 12 281 11.1
2008-06-25 06:23:54 51°14.75 2°52.965 277.8 12 279 11.1
2008-06-25 06:23:59 51°14.753 2°52.939 278.6 12 279 11.2
2008-06-25 06:24:04 51°14.755 2°52.913 277.8 12 278 11.1
2008-06-25 06:24:09 51°14.758 2°52.887 276.9 12 279 11.2
2008-06-25 06:24:14 51°14.76 2°52.861 277.2 11.9 278 11.3
2008-06-25 06:24:19 51°14.762 2°52.835 276.6 11.9 278 11.2
2008-06-25 06:24:24 51°14.764 2°52.809 276.1 11.9 277 11.2
2008-06-25 06:24:29 51°14.766 2°52.783 275.7 11.9 276 11.2
2008-06-25 06:24:34 51°14.768 2°52.757 275.4 11.9 277 11.3
2008-06-25 06:24:39 51°14.77 2°52.731 275.3 11.8 277 11.4
2008-06-25 06:24:44 51°14.772 2°52.705 275.4 11.8 276 11.3
2008-06-25 06:24:49 51°14.774 2°52.679 275.2 11.8 278 11.3
2008-06-25 06:24:54 51°14.775 2°52.653 275.2 11.8 277 11.2
2008-06-25 06:24:59 51°14.777 2°52.627 275.1 11.8 275 11.3
2008-06-25 06:25:04 51°14.779 2°52.601 275 11.8 276 11.3
2008-06-25 06:25:09 51°14.781 2°52.575 274.5 11.9 276 11.4
2008-06-25 06:25:14 51°14.783 2°52.549 275 11.8 276 11.4
2008-06-25 06:25:19 51°14.784 2°52.523 275.3 11.8 275 11.5
2008-06-25 06:25:24 51°14.785 2°52.497 274.2 11.8 275 11.4
2008-06-25 06:25:29 51°14.786 2°52.471 273.7 11.8 273 11.4
2008-06-25 06:25:34 51°14.787 2°52.445 272.8 11.9 273 11.5
2008-06-25 06:25:39 51°14.788 2°52.418 272 11.9 274 11.5
2008-06-25 06:25:44 51°14.788 2°52.392 272.1 11.9 272 11.5
2008-06-25 06:25:49 51°14.789 2°52.366 271.7 11.9 273 11.5
2008-06-25 06:25:54 51°14.79 2°52.34 271.9 11.9 272 11.5
2008-06-25 06:25:59 51°14.791 2°52.314 271.6 12 273 11.6
2008-06-25 06:26:04 51°14.792 2°52.287 271.8 11.9 273 11.5
2008-06-25 06:26:09 51°14.793 2°52.261 272.1 11.9 274 11.5
2008-06-25 06:26:14 51°14.794 2°52.235 272.3 12 275 11.6
2008-06-25 06:26:19 51°14.795 2°52.208 272.4 12 274 11.4
2008-06-25 06:26:24 51°14.796 2°52.182 272.9 12 274 11.6
2008-06-25 06:26:29 51°14.798 2°52.156 272.8 11.9 274 11.6
2008-06-25 06:26:34 51°14.799 2°52.129 273.1 12 274 11.7
2008-06-25 06:26:39 51°14.8 2°52.103 272.9 12.1 274 11.6
2008-06-25 06:26:44 51°14.801 2°52.076 272.6 12 274 11.7
2008-06-25 06:26:49 51°14.802 2°52.05 272.5 12 273 11.7
2008-06-25 06:26:54 51°14.803 2°52.023 272.1 12 274 11.7
2008-06-25 06:26:59 51°14.804 2°51.996 272.4 12 275 11.7
2008-06-25 06:27:04 51°14.805 2°51.97 272.7 12.1 274 11.7
2008-06-25 06:27:09 51°14.807 2°51.943 272.6 12.1 274 11.8
2008-06-25 06:27:14 51°14.808 2°51.917 272.3 12 276 11.9
2008-06-25 06:27:19 51°14.81 2°51.89 273 12 275 11.9
2008-06-25 06:27:24 51°14.811 2°51.864 273.2 12 275 12
2008-06-25 06:27:29 51°14.813 2°51.837 272.9 12 275 12
2008-06-25 06:27:34 51°14.814 2°51.811 273.1 12 274 12.1
2008-06-25 06:27:39 51°14.816 2°51.784 272.8 12 276 12.1
2008-06-25 06:27:44 51°14.817 2°51.758 273 11.9 275 12
2008-06-25 06:27:49 51°14.819 2°51.732 272.9 12 276 12.1
2008-06-25 06:27:54 51°14.821 2°51.705 273.5 12 278 12.1
2008-06-25 06:27:59 51°14.823 2°51.679 274.7 12 279 12.2
2008-06-25 06:28:04 51°14.826 2°51.653 276 12 278 12.3
2008-06-25 06:28:09 51°14.829 2°51.627 276.3 12 280 12.3
2008-06-25 06:28:14 51°14.831 2°51.6 276.8 12 278 12.3
2008-06-25 06:28:19 51°14.834 2°51.574 276.9 12 279 12.4
2008-06-25 06:28:24 51°14.836 2°51.548 276.8 12 278 12.5
2008-06-25 06:28:29 51°14.839 2°51.522 276.4 12 279 12.4
2008-06-25 06:28:34 51°14.841 2°51.495 276.6 12 277 12.6
2008-06-25 06:28:39 51°14.844 2°51.469 276.5 12 280 12.6
2008-06-25 06:28:44 51°14.846 2°51.443 276.6 12 278 12.6
2008-06-25 06:28:49 51°14.849 2°51.417 276.6 12 279 12.7
2008-06-25 06:28:54 51°14.851 2°51.391 276.6 12 278 12.6
2008-06-25 06:28:59 51°14.854 2°51.365 275.9 12 279 12.7
2008-06-25 06:29:04 51°14.856 2°51.338 275.8 12 278 12.7
2008-06-25 06:29:09 51°14.859 2°51.312 276.1 12 279 12.8
2008-06-25 06:29:14 51°14.861 2°51.286 276.5 11.9 278 12.8
2008-06-25 06:29:19 51°14.864 2°51.26 276.3 12 279 12.8
2008-06-25 06:29:24 51°14.866 2°51.234 275.9 12 277 13
2008-06-25 06:29:29 51°14.869 2°51.207 275.6 12 279 13
2008-06-25 06:29:34 51°14.871 2°51.181 275.9 12 279 13
2008-06-25 06:29:39 51°14.874 2°51.155 276.6 12 278 13.1
2008-06-25 06:29:44 51°14.876 2°51.129 276.3 12 279 13
2008-06-25 06:29:49 51°14.878 2°51.102 276.1 12 278 13.1
2008-06-25 06:29:54 51°14.881 2°51.076 275.8 12.1 278 13.2
2008-06-25 06:29:59 51°14.883 2°51.05 275.3 12 277 13.1
2008-06-25 06:30:04 51°14.886 2°51.023 275 12 280 13.2
2008-06-25 06:30:09 51°14.888 2°50.997 275.7 12 277 13.2
2008-06-25 06:30:14 51°14.89 2°50.971 275.3 12 277 13.2
2008-06-25 06:30:19 51°14.892 2°50.945 274.8 11.9 278 13.3
2008-06-25 06:30:24 51°14.894 2°50.919 275.4 11.9 276 13.4
2008-06-25 06:30:29 51°14.896 2°50.892 274.7 12 277 13.5
2008-06-25 06:30:34 51°14.898 2°50.866 274.3 12 277 13.5
2008-06-25 06:30:39 51°14.9 2°50.839 274.8 11.9 277 13.4
2008-06-25 06:30:44 51°14.902 2°50.813 274.3 12 276 13.4
2008-06-25 06:30:49 51°14.904 2°50.787 274.5 12 278 13.5
2008-06-25 06:30:54 51°14.906 2°50.761 274.8 12 276 13.5
2008-06-25 06:30:59 51°14.908 2°50.734 274.7 12 277 13.6
2008-06-25 06:31:04 51°14.91 2°50.708 274.7 12 278 13.5
2008-06-25 06:31:09 51°14.913 2°50.682 275.1 11.9 277 13.5
2008-06-25 06:31:14 51°14.914 2°50.656 274.9 11.9 276 13.6
2008-06-25 06:31:19 51°14.917 2°50.629 273.6 12 278 13.5
2008-06-25 06:31:24 51°14.919 2°50.603 274.3 12 277 13.6
2008-06-25 06:31:29 51°14.921 2°50.577 274.3 11.9 278 13.5
2008-06-25 06:31:34 51°14.923 2°50.552 274.5 11.9 277 13.7
2008-06-25 06:31:39 51°14.925 2°50.526 274.8 11.9 279 13.7
2008-06-25 06:31:44 51°14.928 2°50.5 274.8 11.8 278 13.7
2008-06-25 06:31:49 51°14.93 2°50.474 274.9 11.8 278 13.8
2008-06-25 06:31:54 51°14.932 2°50.447 275 11.9 277 13.8
2008-06-25 06:31:59 51°14.934 2°50.421 275 11.8 278 13.8
2008-06-25 06:32:04 51°14.936 2°50.396 274.6 11.8 276 13.8
2008-06-25 06:32:09 51°14.938 2°50.369 274.5 11.8 276 14.1
2008-06-25 06:32:14 51°14.94 2°50.343 274.1 11.8 275 13.9
2008-06-25 06:32:19 51°14.941 2°50.317 273.3 11.8 274 13.9
2008-06-25 06:32:24 51°14.942 2°50.291 272.3 11.8 274 14
2008-06-25 06:32:29 51°14.943 2°50.265 272.2 11.8 273 14
2008-06-25 06:32:34 51°14.943 2°50.239 272 11.9 273 14
2008-06-25 06:32:39 51°14.944 2°50.213 271.6 11.9 274 14
2008-06-25 06:32:44 51°14.945 2°50.187 271.9 11.9 273 14
2008-06-25 06:32:49 51°14.947 2°50.16 271.5 11.9 276 14.1
2008-06-25 06:32:54 51°14.948 2°50.134 272.5 11.9 271 14
2008-06-25 06:32:59 51°14.949 2°50.108 271.5 12 276 14.1
2008-06-25 06:33:04 51°14.95 2°50.082 272.2 11.9 273 14.2
2008-06-25 06:33:09 51°14.952 2°50.055 271.9 11.9 276 14.1
2008-06-25 06:33:14 51°14.953 2°50.029 272.4 11.9 273 14.2
2008-06-25 06:33:19 51°14.955 2°50.003 272.3 11.9 277 14
2008-06-25 06:33:24 51°14.956 2°49.976 272.2 12 273 14
2008-06-25 06:33:29 51°14.958 2°49.95 272.4 12 276 14.1
2008-06-25 06:33:34 51°14.959 2°49.923 272.8 12 277 14
2008-06-25 06:33:39 51°14.961 2°49.897 273.5 12 276 14.2
2008-06-25 06:33:44 51°14.964 2°49.871 274.3 12 280 14.2
2008-06-25 06:33:49 51°14.966 2°49.844 275.3 12 277 14.3
2008-06-25 06:33:54 51°14.97 2°49.818 275.4 12 280 14.1
2008-06-25 06:33:59 51°14.972 2°49.791 276.1 12 278 14.1
2008-06-25 06:34:04 51°14.974 2°49.764 275.6 12 278 14
2008-06-25 06:34:09 51°14.977 2°49.738 275 12 278 14.2
2008-06-25 06:34:14 51°14.979 2°49.712 275.3 12.1 279 14.1
2008-06-25 06:34:19 51°14.982 2°49.686 275.3 12 278 14.2
2008-06-25 06:34:24 51°14.984 2°49.66 275.5 11.9 277 14.2
2008-06-25 06:34:29 51°14.986 2°49.634 274.4 11.9 277 14.2
2008-06-25 06:34:34 51°14.987 2°49.607 274 11.9 275 14.4
2008-06-25 06:34:39 51°14.989 2°49.581 273.2 11.9 276 13.9
2008-06-25 06:34:44 51°14.99 2°49.555 272.6 11.8 274 14.3
2008-06-25 06:34:49 51°14.991 2°49.529 272.1 11.8 274 14.3
2008-06-25 06:34:54 51°14.993 2°49.503 271.4 11.8 274 14.4
2008-06-25 06:34:59 51°14.994 2°49.477 271.4 11.8 273 14.4
2008-06-25 06:35:04 51°14.995 2°49.451 271.6 11.8 275 14.2
2008-06-25 06:35:09 51°14.996 2°49.425 272.1 11.8 274 14.3
2008-06-25 06:35:14 51°14.997 2°49.399 272.3 11.8 274 14.4
2008-06-25 06:35:19 51°14.999 2°49.374 272.3 11.7 275 14.4
2008-06-25 06:35:24 51°15 2°49.347 272.8 11.8 274 14.4
2008-06-25 06:35:29 51°15.001 2°49.322 272.3 11.8 275 14.1
2008-06-25 06:35:34 51°15.003 2°49.295 272.8 11.8 274 14.1
2008-06-25 06:35:39 51°15.004 2°49.269 272.8 11.8 275 14.1
2008-06-25 06:35:44 51°15.006 2°49.243 272.8 11.9 275 14.3
2008-06-25 06:35:49 51°15.007 2°49.217 272.6 11.8 276 14.2
2008-06-25 06:35:54 51°15.008 2°49.191 273 11.8 274 14.3
2008-06-25 06:35:59 51°15.01 2°49.164 272.8 11.8 275 14.2
2008-06-25 06:36:04 51°15.011 2°49.139 272.8 11.8 275 14.3
2008-06-25 06:36:09 51°15.013 2°49.112 273.1 11.9 275 14.2
2008-06-25 06:36:14 51°15.014 2°49.086 273.1 11.8 275 14.2
2008-06-25 06:36:19 51°15.015 2°49.06 273.2 11.9 275 14.3
2008-06-25 06:36:24 51°15.017 2°49.034 272.9 11.9 276 14.2
2008-06-25 06:36:29 51°15.019 2°49.008 273.6 12 275 14.2
2008-06-25 06:36:34 51°15.02 2°48.981 273.5 12 277 14.1
2008-06-25 06:36:39 51°15.022 2°48.955 273.5 11.9 276 14.2
2008-06-25 06:36:44 51°15.024 2°48.929 274.2 12 276 14.2
2008-06-25 06:36:49 51°15.025 2°48.902 273.5 11.9 275 14.1
2008-06-25 06:36:54 51°15.027 2°48.876 273.4 11.9 273 14.2
2008-06-25 06:36:59 51°15.028 2°48.85 272.8 11.9 277 14.2
2008-06-25 06:37:04 51°15.029 2°48.825 273 11.8 274 14.2
2008-06-25 06:37:09 51°15.03 2°48.798 273.2 11.9 274 14.2
2008-06-25 06:37:14 51°15.032 2°48.772 273 11.9 277 14.1
2008-06-25 06:37:19 51°15.033 2°48.746 273.6 11.9 274 14.1
2008-06-25 06:37:24 51°15.035 2°48.72 273.2 11.9 277 14.2
2008-06-25 06:37:29 51°15.037 2°48.693 273.5 11.9 276 14.2
2008-06-25 06:37:34 51°15.039 2°48.667 274.1 11.8 275 14.2
2008-06-25 06:37:39 51°15.04 2°48.641 273.9 11.9 275 14.2
2008-06-25 06:37:44 51°15.042 2°48.615 273.5 11.9 276 14.1
2008-06-25 06:37:49 51°15.043 2°48.588 274.1 11.9 274 14.2
2008-06-25 06:37:54 51°15.045 2°48.562 273.7 11.9 277 14.2
2008-06-25 06:37:59 51°15.046 2°48.536 273.8 12 274 14.2
2008-06-25 06:38:04 51°15.048 2°48.509 273.2 12 277 14.2
2008-06-25 06:38:09 51°15.05 2°48.483 273.7 12 275 14.4
2008-06-25 06:38:14 51°15.052 2°48.456 274 12.1 278 14.3
2008-06-25 06:38:19 51°15.054 2°48.43 275 12.1 278 14.5
2008-06-25 06:38:24 51°15.057 2°48.403 276.4 12.1 279 14.4
2008-06-25 06:38:29 51°15.06 2°48.377 276.8 12.2 280 14.4
2008-06-25 06:38:34 51°15.063 2°48.351 277.8 12.2 280 14.4
2008-06-25 06:38:39 51°15.065 2°48.324 277.8 12.2 279 14.4
2008-06-25 06:38:44 51°15.069 2°48.298 277.1 12.1 281 14.5
2008-06-25 06:38:49 51°15.071 2°48.272 277.8 12.1 278 14.5
2008-06-25 06:38:54 51°15.073 2°48.245 276.6 12.1 277 14.5
2008-06-25 06:38:59 51°15.075 2°48.218 275.2 12 276 14.5
2008-06-25 06:39:04 51°15.076 2°48.192 273.8 12 276 14.4
2008-06-25 06:39:09 51°15.078 2°48.165 272.8 12 274 14.3
2008-06-25 06:39:14 51°15.079 2°48.139 271.8 12 274 14.4
2008-06-25 06:39:19 51°15.08 2°48.112 271.1 11.9 273 14.4
2008-06-25 06:39:24 51°15.081 2°48.086 270.5 11.9 275 14.3
2008-06-25 06:39:29 51°15.082 2°48.06 270.9 11.9 273 14.4
2008-06-25 06:39:34 51°15.082 2°48.033 270.4 11.9 273 14.4
2008-06-25 06:39:39 51°15.083 2°48.007 269.9 11.9 272 14.4
2008-06-25 06:39:44 51°15.084 2°47.981 269.9 11.9 275 14.3
2008-06-25 06:39:49 51°15.085 2°47.955 271.3 11.9 273 14.2
2008-06-25 06:39:54 51°15.087 2°47.928 271.7 12 276 14.2
2008-06-25 06:39:59 51°15.089 2°47.902 272.9 12 277 13.9
2008-06-25 06:40:04 51°15.092 2°47.876 274.1 11.9 278 13.7
2008-06-25 06:40:09 51°15.094 2°47.85 274.8 11.9 277 13.4
2008-06-25 06:40:14 51°15.096 2°47.824 275 11.9 278 13.4
2008-06-25 06:40:19 51°15.098 2°47.798 275 12 279 13.2
2008-06-25 06:40:24 51°15.101 2°47.772 275.6 11.9 279 12.8
2008-06-25 06:40:29 51°15.103 2°47.746 276.3 11.9 277 12.4
2008-06-25 06:40:34 51°15.105 2°47.72 275.5 11.9 277 12.6
2008-06-25 06:40:39 51°15.107 2°47.694 274.4 11.8 276 12.1
2008-06-25 06:40:44 51°15.109 2°47.667 274.1 11.9 278 12
2008-06-25 06:40:49 51°15.111 2°47.641 273.8 11.9 276 12
2008-06-25 06:40:54 51°15.114 2°47.615 274.1 11.9 278 11.6
2008-06-25 06:40:59 51°15.116 2°47.589 274.8 11.9 278 11.3
2008-06-25 06:41:04 51°15.119 2°47.563 275 11.9 280 11.5
2008-06-25 06:41:09 51°15.121 2°47.538 276.1 11.8 278 11
2008-06-25 06:41:14 51°15.123 2°47.512 275.9 11.8 278 11.3
2008-06-25 06:41:19 51°15.126 2°47.486 275.4 11.9 278 11.1
2008-06-25 06:41:24 51°15.128 2°47.46 275.3 11.9 278 10.8
2008-06-25 06:41:29 51°15.13 2°47.433 275.3 11.9 278 10.9
2008-06-25 06:41:34 51°15.133 2°47.407 275 11.9 278 10.8
2008-06-25 06:41:39 51°15.135 2°47.381 275.2 11.9 278 10.8
2008-06-25 06:41:44 51°15.137 2°47.355 275.1 11.9 278 10.7
2008-06-25 06:41:49 51°15.139 2°47.329 274.7 12 278 10.8
2008-06-25 06:41:54 51°15.142 2°47.303 274.9 11.9 278 10.8
2008-06-25 06:41:59 51°15.144 2°47.277 275.1 12 278 10.9
2008-06-25 06:42:04 51°15.146 2°47.25 275.1 12 277 10.7
2008-06-25 06:42:09 51°15.148 2°47.224 274.7 12 276 11
2008-06-25 06:42:14 51°15.15 2°47.198 274.3 12 278 11
2008-06-25 06:42:19 51°15.152 2°47.172 274.7 11.9 275 11.2
2008-06-25 06:42:24 51°15.154 2°47.145 274.3 11.9 277 11
2008-06-25 06:42:29 51°15.156 2°47.119 273.5 11.9 275 11
2008-06-25 06:42:34 51°15.157 2°47.092 272.3 12 274 11.3
2008-06-25 06:42:39 51°15.158 2°47.066 271.5 11.9 274 11.3
2008-06-25 06:42:44 51°15.159 2°47.04 271.4 11.9 273 11.3
2008-06-25 06:42:49 51°15.16 2°47.014 270.3 11.9 274 11.4
2008-06-25 06:42:54 51°15.161 2°46.987 270.8 12 274 11.6
2008-06-25 06:42:59 51°15.161 2°46.961 271.3 12 273 11.5
2008-06-25 06:43:04 51°15.163 2°46.935 271 12 274 11.6
2008-06-25 06:43:09 51°15.163 2°46.908 271.2 12 273 11.6
2008-06-25 06:43:14 51°15.165 2°46.882 270.9 12 276 11.7
2008-06-25 06:43:19 51°15.166 2°46.855 272 12 272 11.8
2008-06-25 06:43:24 51°15.168 2°46.829 271.3 12.1 277 11.8
2008-06-25 06:43:29 51°15.168 2°46.802 272.1 12 273 12
2008-06-25 06:43:34 51°15.17 2°46.775 271.9 12 275 12.1
2008-06-25 06:43:39 51°15.171 2°46.749 271.4 12 274 12.2
2008-06-25 06:43:44 51°15.172 2°46.722 271.6 12 274 12.3
2008-06-25 06:43:49 51°15.173 2°46.696 271.1 12.1 274 12.4
2008-06-25 06:43:54 51°15.174 2°46.669 271.4 12.1 274 12.5
2008-06-25 06:43:59 51°15.175 2°46.643 271.4 12 274 12.7
2008-06-25 06:44:04 51°15.176 2°46.617 271.7 12 274 12.8
2008-06-25 06:44:09 51°15.178 2°46.59 272.1 12 274 12.9
2008-06-25 06:44:14 51°15.179 2°46.563 272.1 12.1 275 13
2008-06-25 06:44:19 51°15.18 2°46.537 272.1 12 275 13
2008-06-25 06:44:24 51°15.182 2°46.511 272.2 12 275 13
2008-06-25 06:44:29 51°15.183 2°46.484 272.1 12 274 13.3
2008-06-25 06:44:34 51°15.184 2°46.457 272.3 12 274 13.4
2008-06-25 06:44:39 51°15.185 2°46.431 271.9 12 275 13.5
2008-06-25 06:44:44 51°15.187 2°46.404 271.9 12 274 13.5
2008-06-25 06:44:49 51°15.188 2°46.378 272.4 12.1 275 13.7
2008-06-25 06:44:54 51°15.19 2°46.351 272.1 12 275 13.9
2008-06-25 06:44:59 51°15.191 2°46.324 272.5 12 276 14
2008-06-25 06:45:04 51°15.193 2°46.298 272.5 12.1 275 14
2008-06-25 06:45:09 51°15.194 2°46.271 272.7 12.1 274 14.2
2008-06-25 06:45:14 51°15.196 2°46.245 272.1 12 276 14.4
2008-06-25 06:45:19 51°15.197 2°46.218 272.6 12.1 276 14.5
2008-06-25 06:45:24 51°15.199 2°46.192 272.9 12.1 278 14.7
2008-06-25 06:45:29 51°15.201 2°46.165 274.5 12.1 276 14.9
2008-06-25 06:45:34 51°15.204 2°46.139 274.6 12.1 279 15
2008-06-25 06:45:39 51°15.206 2°46.112 275.7 12.1 276 15.2
2008-06-25 06:45:44 51°15.208 2°46.086 275.7 12.1 280 15.2
2008-06-25 06:45:49 51°15.211 2°46.059 275.4 12.1 278 15.3
2008-06-25 06:45:54 51°15.213 2°46.033 275.8 12.1 279 15.3
2008-06-25 06:45:59 51°15.216 2°46.007 275.7 12.1 279 15.5
2008-06-25 06:46:04 51°15.218 2°45.98 276.3 12.1 278 15.5
2008-06-25 06:46:09 51°15.221 2°45.954 275.7 12.1 279 15.7
2008-06-25 06:46:14 51°15.223 2°45.928 275.6 12.1 278 15.9
2008-06-25 06:46:19 51°15.225 2°45.901 275.3 12.1 278 15.9
2008-06-25 06:46:24 51°15.227 2°45.875 275.2 12 277 16.1
2008-06-25 06:46:29 51°15.229 2°45.848 275 12.1 278 16.2
2008-06-25 06:46:34 51°15.231 2°45.822 275 12.1 277 16.3
2008-06-25 06:46:39 51°15.234 2°45.795 275.1 12 277 16.5
2008-06-25 06:46:44 51°15.235 2°45.769 275 12 276 16.5
2008-06-25 06:46:49 51°15.237 2°45.743 274.5 12 276 16.8
2008-06-25 06:46:54 51°15.239 2°45.716 273.8 11.9 276 16.8
2008-06-25 06:46:59 51°15.24 2°45.69 273.5 11.9 274 16.9
2008-06-25 06:47:04 51°15.242 2°45.664 272.2 12 276 16.9
2008-06-25 06:47:09 51°15.243 2°45.637 272.5 12 275 17
2008-06-25 06:47:14 51°15.245 2°45.611 272.4 12 276 17
2008-06-25 06:47:19 51°15.247 2°45.584 272.4 12.1 277 17
2008-06-25 06:47:24 51°15.249 2°45.558 272.9 12 277 17.2
2008-06-25 06:47:29 51°15.251 2°45.531 273.5 12 277 17.3
2008-06-25 06:47:34 51°15.253 2°45.505 274 12 278 17.3
2008-06-25 06:47:39 51°15.255 2°45.479 274.7 12 278 17.5
2008-06-25 06:47:44 51°15.258 2°45.453 275 11.9 278 17.5
2008-06-25 06:47:49 51°15.259 2°45.427 275.1 12 276 17.5
2008-06-25 06:47:54 51°15.262 2°45.401 274.4 12 278 17.6
2008-06-25 06:47:59 51°15.264 2°45.374 275.3 11.9 276 17.8
2008-06-25 06:48:04 51°15.266 2°45.348 274.9 12 279 17.8
2008-06-25 06:48:09 51°15.269 2°45.322 275 11.9 277 17.8
2008-06-25 06:48:14 51°15.27 2°45.296 275 12 276 18
2008-06-25 06:48:19 51°15.272 2°45.269 273.5 11.9 278 18.1
2008-06-25 06:48:24 51°15.274 2°45.243 274.3 12 276 18.1
2008-06-25 06:48:29 51°15.277 2°45.217 274 12 279 18.2
2008-06-25 06:48:34 51°15.279 2°45.191 274.5 11.9 276 18.4
2008-06-25 06:48:39 51°15.28 2°45.164 274.4 11.9 277 18.5
2008-06-25 06:48:44 51°15.282 2°45.138 274 11.9 276 18.7
2008-06-25 06:48:49 51°15.283 2°45.112 272.8 11.9 274 18.7
2008-06-25 06:48:54 51°15.285 2°45.086 271.8 11.9 274 18.9
2008-06-25 06:48:59 51°15.286 2°45.059 272 12 274 19
2008-06-25 06:49:04 51°15.288 2°45.033 271.4 11.9 276 19.2
2008-06-25 06:49:09 51°15.288 2°45.007 271.8 11.9 273 19.3
2008-06-25 06:49:14 51°15.29 2°44.98 271 12 276 19.3
2008-06-25 06:49:19 51°15.291 2°44.954 271.4 11.8 274 19.3
2008-06-25 06:49:24 51°15.292 2°44.928 271.3 11.9 275 19.4
2008-06-25 06:49:29 51°15.293 2°44.901 270.9 12 274 19.4
2008-06-25 06:49:34 51°15.295 2°44.875 270.8 11.8 274 19.4
2008-06-25 06:49:39 51°15.296 2°44.849 271.3 11.9 276 19.5
2008-06-25 06:49:44 51°15.298 2°44.823 272.1 12 276 19.4
2008-06-25 06:49:49 51°15.3 2°44.797 272.9 12 277 19.4
2008-06-25 06:49:54 51°15.302 2°44.771 273 11.9 276 19.4
2008-06-25 06:49:59 51°15.305 2°44.744 273.7 12 277 19.4
2008-06-25 06:50:04 51°15.307 2°44.718 274.2 12 279 19.3
2008-06-25 06:50:09 51°15.309 2°44.692 274.7 12 278 19.2
2008-06-25 06:50:14 51°15.311 2°44.665 274.4 12 280 19
2008-06-25 06:50:19 51°15.314 2°44.639 274.7 12 278 19
2008-06-25 06:50:24 51°15.316 2°44.613 275 12 277 18.8
2008-06-25 06:50:29 51°15.318 2°44.587 274.7 12 278 18.7
2008-06-25 06:50:34 51°15.321 2°44.561 274.5 11.9 278 18.5
2008-06-25 06:50:39 51°15.323 2°44.534 274.5 12.1 277 18.4
2008-06-25 06:50:44 51°15.325 2°44.508 273.5 12 277 18.2
2008-06-25 06:50:49 51°15.326 2°44.482 273.5 11.9 275 18.1
2008-06-25 06:50:54 51°15.328 2°44.456 272.1 12 277 17.9
2008-06-25 06:50:59 51°15.33 2°44.43 272.3 11.9 273 17.7
2008-06-25 06:51:04 51°15.331 2°44.403 271.5 11.9 276 17.5
2008-06-25 06:51:09 51°15.333 2°44.378 271.5 11.9 275 17.4
2008-06-25 06:51:14 51°15.334 2°44.351 271.8 11.9 277 17.2
2008-06-25 06:51:19 51°15.336 2°44.325 271.6 11.8 275 17
2008-06-25 06:51:24 51°15.338 2°44.3 272 11.7 276 16.8
2008-06-25 06:51:29 51°15.339 2°44.273 272.1 12 275 16.5
2008-06-25 06:51:34 51°15.341 2°44.247 271.6 11.9 278 16.2
2008-06-25 06:51:39 51°15.343 2°44.221 272.4 11.8 276 16.1
2008-06-25 06:51:44 51°15.345 2°44.195 271.9 11.9 277 15.9
2008-06-25 06:51:49 51°15.348 2°44.169 272.8 12 278 15.7
2008-06-25 06:51:54 51°15.35 2°44.143 273.8 11.8 278 15.4
2008-06-25 06:51:59 51°15.352 2°44.117 273.5 11.8 277 15.3
2008-06-25 06:52:04 51°15.354 2°44.091 273 12 277 15.1
2008-06-25 06:52:09 51°15.357 2°44.065 273.3 12 280 15
2008-06-25 06:52:14 51°15.359 2°44.039 274.9 11.9 277 14.9
2008-06-25 06:52:19 51°15.362 2°44.013 274.4 11.8 280 13.4
2008-06-25 06:52:24 51°15.364 2°43.987 274.6 11.9 280 13.7
2008-06-25 06:52:29 51°15.367 2°43.961 275.3 11.9 278 14
2008-06-25 06:52:34 51°15.369 2°43.935 274.8 11.8 277 14.4
2008-06-25 06:52:39 51°15.371 2°43.91 273.7 11.8 278 14.2
2008-06-25 06:52:44 51°15.373 2°43.884 273 11.8 276 14.2
2008-06-25 06:52:49 51°15.375 2°43.857 272.1 11.8 276 14.2
2008-06-25 06:52:54 51°15.377 2°43.831 272.1 11.9 276 14.3
2008-06-25 06:52:59 51°15.378 2°43.805 272.3 11.8 278 14.1
2008-06-25 06:53:04 51°15.38 2°43.78 272.5 11.7 274 14.2
2008-06-25 06:53:09 51°15.382 2°43.754 271.9 11.8 276 14.3
2008-06-25 06:53:14 51°15.383 2°43.727 271.5 11.9 275 14.2
2008-06-25 06:53:19 51°15.385 2°43.702 271.3 11.7 277 14.1
2008-06-25 06:53:24 51°15.386 2°43.676 271.9 11.7 274 14.2
2008-06-25 06:53:29 51°15.389 2°43.65 271.5 11.9 277 14.3
2008-06-25 06:53:34 51°15.39 2°43.623 272.1 11.9 275 14.3
2008-06-25 06:53:39 51°15.392 2°43.598 272.1 11.8 278 14.2
2008-06-25 06:53:44 51°15.394 2°43.572 272.6 11.8 275 14.4
2008-06-25 06:53:49 51°15.396 2°43.546 272.3 11.8 277 14.4
2008-06-25 06:53:54 51°15.397 2°43.52 272.8 11.8 275 14.4
2008-06-25 06:53:59 51°15.399 2°43.494 272.8 11.8 276 14.4
2008-06-25 06:54:04 51°15.4 2°43.468 272.4 11.8 274 14.5
2008-06-25 06:54:09 51°15.402 2°43.442 271.8 11.9 277 14.4
2008-06-25 06:54:14 51°15.404 2°43.416 272.3 11.9 275 14.4
2008-06-25 06:54:19 51°15.406 2°43.39 272.5 11.9 279 14.5
2008-06-25 06:54:24 51°15.408 2°43.363 273.5 11.9 276 14.5
2008-06-25 06:54:29 51°15.411 2°43.337 274.1 12 279 14.6
2008-06-25 06:54:34 51°15.413 2°43.311 275.1 11.8 279 14.6
2008-06-25 06:54:39 51°15.415 2°43.285 275.7 11.9 279 14.6
2008-06-25 06:54:44 51°15.418 2°43.259 275.4 12 279 14.8
2008-06-25 06:54:49 51°15.42 2°43.233 276.1 11.9 278 14.7
2008-06-25 06:54:54 51°15.422 2°43.207 275.7 11.9 277 14.9
2008-06-25 06:54:59 51°15.425 2°43.181 275.3 12 279 14.8
2008-06-25 06:55:04 51°15.427 2°43.154 275.3 12 278 14.5
2008-06-25 06:55:09 51°15.429 2°43.128 275.9 12 279 13.3
2008-06-25 06:55:14 51°15.432 2°43.102 276 12 277 13.1
2008-06-25 06:55:19 51°15.433 2°43.076 274.8 12 277 13.6
2008-06-25 06:55:24 51°15.435 2°43.049 273.8 12 274 13.6
2008-06-25 06:55:29 51°15.436 2°43.023 272.9 12 275 13.5
2008-06-25 06:55:34 51°15.438 2°42.996 272.3 12 275 13.2
2008-06-25 06:55:39 51°15.439 2°42.969 272.4 12.1 275 12.5
2008-06-25 06:55:44 51°15.441 2°42.942 272.4 12.1 275 12.2
2008-06-25 06:55:49 51°15.442 2°42.916 272.1 12.1 275 12.9
2008-06-25 06:55:54 51°15.443 2°42.89 271.8 12 274 12.8
2008-06-25 06:55:59 51°15.445 2°42.863 271.4 12 274 12.3
2008-06-25 06:56:04 51°15.447 2°42.837 271.4 12.1 276 12.2
2008-06-25 06:56:09 51°15.447 2°42.81 271.7 12 275 11.9
2008-06-25 06:56:14 51°15.45 2°42.783 271.6 12 276 12.2
2008-06-25 06:56:19 51°15.45 2°42.757 272 12 275 12.6
2008-06-25 06:56:24 51°15.453 2°42.731 271.4 12.1 277 12.5
2008-06-25 06:56:29 51°15.454 2°42.704 271.8 12.1 276 12.7
2008-06-25 06:56:34 51°15.457 2°42.677 272.9 12.2 277 12.6
2008-06-25 06:56:39 51°15.459 2°42.651 273.7 12.1 278 12.3
2008-06-25 06:56:44 51°15.461 2°42.625 274.6 11.9 277 11.8
2008-06-25 06:56:49 51°15.463 2°42.598 274.1 11.9 276 11.3
2008-06-25 06:56:54 51°15.465 2°42.572 273.5 12 276 11.9
2008-06-25 06:56:59 51°15.467 2°42.546 272.9 11.9 276 10.9
2008-06-25 06:57:04 51°15.468 2°42.519 272.8 11.9 276 11.9
2008-06-25 06:57:09 51°15.47 2°42.493 272.6 11.9 274 12.5
2008-06-25 06:57:14 51°15.471 2°42.467 272 12 275 12.4
2008-06-25 06:57:19 51°15.473 2°42.44 271.8 12 276 12.5
2008-06-25 06:57:24 51°15.474 2°42.414 271.8 12 276 12.1
2008-06-25 06:57:29 51°15.476 2°42.388 272.1 11.9 276 11.4
2008-06-25 06:57:34 51°15.477 2°42.362 272.1 11.9 275 11.4
2008-06-25 06:57:39 51°15.48 2°42.335 271.9 12 276 12.4
2008-06-25 06:57:44 51°15.481 2°42.309 272.3 12 276 12.2
2008-06-25 06:57:49 51°15.483 2°42.282 272.9 12.1 278 12.1
2008-06-25 06:57:54 51°15.485 2°42.256 274.3 12 277 11.8
2008-06-25 06:57:59 51°15.488 2°42.23 274.3 12.1 279 10.9
2008-06-25 06:58:04 51°15.49 2°42.203 275.1 12 278 11.4
2008-06-25 06:58:09 51°15.493 2°42.177 275.1 12.1 279 12.4
2008-06-25 06:58:14 51°15.495 2°42.151 275.4 12.1 278 12.3
2008-06-25 06:58:19 51°15.498 2°42.124 275.7 12 278 12.4
2008-06-25 06:58:24 51°15.5 2°42.098 275 12 276 11.9
2008-06-25 06:58:29 51°15.502 2°42.072 273.8 11.9 278 11.1
2008-06-25 06:58:34 51°15.503 2°42.045 273.9 11.9 273 9.7
2008-06-25 06:58:39 51°15.506 2°42.02 272.2 11.8 280 11.1
2008-06-25 06:58:44 51°15.507 2°41.994 273.8 11.7 273 11.5
2008-06-25 06:58:49 51°15.509 2°41.968 272.3 11.9 278 11.3
2008-06-25 06:58:54 51°15.51 2°41.942 272.2 11.9 271 11.3
2008-06-25 06:58:59 51°15.511 2°41.915 270.9 12 279 11.2
2008-06-25 06:59:04 51°15.513 2°41.889 271.7 11.8 274 11.1
2008-06-25 06:59:09 51°15.514 2°41.863 272 11.9 276 11.3
2008-06-25 06:59:14 51°15.515 2°41.837 271.6 11.9 274 11.2
2008-06-25 06:59:19 51°15.517 2°41.811 271.7 11.9 278 11.5
2008-06-25 06:59:24 51°15.52 2°41.785 273.1 12 281 11.6
2008-06-25 06:59:29 51°15.524 2°41.759 276.2 12 284 11.6
2008-06-25 06:59:34 51°15.528 2°41.733 279.3 12.1 284 11.6
2008-06-25 06:59:39 51°15.534 2°41.707 280.4 12.2 289 11.6
2008-06-25 06:59:44 51°15.539 2°41.681 282.9 12.2 288 11.7
2008-06-25 06:59:49 51°15.546 2°41.657 284.4 12.2 296 11.7
2008-06-25 06:59:54 51°15.553 2°41.632 289 12.2 295 11.7
2008-06-25 06:59:59 51°15.562 2°41.609 292.4 12.3 300 11.5
2008-06-25 07:00:04 51°15.57 2°41.585 295 12.3 300 11.6
2008-06-25 07:00:09 51°15.58 2°41.562 297.5 12.3 302 11.7
2008-06-25 07:00:14 51°15.589 2°41.539 298.8 12.4 304 11.7
2008-06-25 07:00:19 51°15.598 2°41.517 300.4 12.4 303 11.8
2008-06-25 07:00:24 51°15.608 2°41.494 301.1 12.4 305 11.6
2008-06-25 07:00:29 51°15.618 2°41.472 301.8 12.3 305 11.6
2008-06-25 07:00:34 51°15.628 2°41.45 302.3 12.4 305 11.8
2008-06-25 07:00:39 51°15.638 2°41.427 302.2 12.4 305 11.9
2008-06-25 07:00:44 51°15.648 2°41.405 302.6 12.4 305 11.9
2008-06-25 07:00:49 51°15.657 2°41.381 301.8 12.4 304 11.7
2008-06-25 07:00:54 51°15.667 2°41.359 301.4 12.4 303 11.9
2008-06-25 07:00:59 51°15.676 2°41.336 300.9 12.5 303 12.2
2008-06-25 07:01:04 51°15.686 2°41.312 300.9 12.5 302 12.2
2008-06-25 07:01:09 51°15.695 2°41.289 300.2 12.5 303 12.4
2008-06-25 07:01:14 51°15.704 2°41.266 299.9 12.4 302 12.6
2008-06-25 07:01:19 51°15.714 2°41.243 299.7 12.5 303 12.7
2008-06-25 07:01:24 51°15.723 2°41.219 299.7 12.5 301 12.8
2008-06-25 07:01:29 51°15.732 2°41.196 299.4 12.4 302 12.6
2008-06-25 07:01:34 51°15.741 2°41.172 299 12.5 301 13.1
2008-06-25 07:01:39 51°15.75 2°41.149 298.9 12.4 303 12.9
2008-06-25 07:01:44 51°15.759 2°41.126 299.3 12.5 301 13.7
2008-06-25 07:01:49 51°15.769 2°41.102 299.5 12.5 302 13.2
2008-06-25 07:01:54 51°15.777 2°41.079 299.7 12.5 301 13.9
2008-06-25 07:01:59 51°15.786 2°41.055 298.9 12.5 301 13.8
2008-06-25 07:02:04 51°15.795 2°41.031 298.5 12.5 301 13.8
2008-06-25 07:02:09 51°15.804 2°41.008 298.6 12.5 301 14.4
2008-06-25 07:02:14 51°15.813 2°40.984 298.8 12.5 301 14.6
2008-06-25 07:02:19 51°15.823 2°40.961 298.8 12.6 301 14.8
2008-06-25 07:02:24 51°15.832 2°40.937 298.9 12.5 302 15.1
2008-06-25 07:02:29 51°15.841 2°40.914 299 12.5 302 15.2
2008-06-25 07:02:34 51°15.85 2°40.89 299 12.5 301 15.4
2008-06-25 07:02:39 51°15.858 2°40.866 298.2 12.4 300 15.7
2008-06-25 07:02:44 51°15.867 2°40.842 297.4 12.4 298 16
2008-06-25 07:02:49 51°15.875 2°40.818 296 12.4 300 16.4
2008-06-25 07:02:54 51°15.883 2°40.794 296.2 12.3 299 16.8
2008-06-25 07:02:59 51°15.892 2°40.77 296.5 12.4 301 17.2
2008-06-25 07:03:04 51°15.901 2°40.746 297 12.4 301 17.4
2008-06-25 07:03:09 51°15.909 2°40.723 297.7 12.4 300 17.6
2008-06-25 07:03:14 51°15.918 2°40.699 297.5 12.5 300 18.1
2008-06-25 07:03:19 51°15.927 2°40.675 297.3 12.5 300 18.2
2008-06-25 07:03:24 51°15.936 2°40.651 297.2 12.4 300 18.4
2008-06-25 07:03:29 51°15.944 2°40.628 297.3 12.4 300 18.7
2008-06-25 07:03:34 51°15.953 2°40.604 296.8 12.4 301 18.9
2008-06-25 07:03:39 51°15.961 2°40.58 296.9 12.4 300 19
2008-06-25 07:03:44 51°15.97 2°40.557 297 12.4 300 19.2
2008-06-25 07:03:49 51°15.977 2°40.533 296.6 12.3 297 19.4
2008-06-25 07:03:54 51°15.985 2°40.509 295.3 12.3 298 19.6
2008-06-25 07:03:59 51°15.993 2°40.485 294.6 12.2 297 19.8
2008-06-25 07:04:04 51°16.001 2°40.46 294.2 12.3 296 20.1
2008-06-25 07:04:09 51°16.009 2°40.436 293.8 12.2 297 20.3
2008-06-25 07:04:14 51°16.016 2°40.412 293.6 12.3 296 20.4
2008-06-25 07:04:19 51°16.024 2°40.388 293.5 12.3 298 20.6
2008-06-25 07:04:24 51°16.031 2°40.364 293.9 12.2 296 20.6
2008-06-25 07:04:29 51°16.039 2°40.34 293.1 12.2 297 20.7
2008-06-25 07:04:34 51°16.047 2°40.316 293.5 12.3 297 20.9
2008-06-25 07:04:39 51°16.055 2°40.292 293.9 12.3 298 21
2008-06-25 07:04:44 51°16.062 2°40.267 294.4 12.3 297 21.1
2008-06-25 07:04:49 51°16.071 2°40.244 294.6 12.3 299 21.3
2008-06-25 07:04:54 51°16.079 2°40.22 295.3 12.3 299 21.4
2008-06-25 07:04:59 51°16.087 2°40.196 296 12.3 298 21.5
2008-06-25 07:05:04 51°16.095 2°40.172 296.2 12.3 299 21.6
2008-06-25 07:05:09 51°16.104 2°40.148 296.1 12.3 299 21.5
2008-06-25 07:05:14 51°16.112 2°40.124 296.5 12.3 299 21.5
2008-06-25 07:05:19 51°16.12 2°40.1 296.8 12.3 299 21.5
2008-06-25 07:05:24 51°16.128 2°40.076 297 12.3 299 21.7
2008-06-25 07:05:29 51°16.137 2°40.053 296.8 12.3 299 21.6
2008-06-25 07:05:34 51°16.145 2°40.029 296.8 12.3 298 21.8
2008-06-25 07:05:39 51°16.153 2°40.006 296.5 12.3 299 21.6
2008-06-25 07:05:44 51°16.161 2°39.982 296.6 12.3 298 21.5
2008-06-25 07:05:49 51°16.169 2°39.958 296.4 12.3 299 21.5
2008-06-25 07:05:54 51°16.177 2°39.934 296.2 12.3 298 21.5
2008-06-25 07:05:59 51°16.185 2°39.91 296.6 12.3 298 21.6
2008-06-25 07:06:04 51°16.193 2°39.885 296.2 12.4 296 21.6
2008-06-25 07:06:09 51°16.2 2°39.861 294.7 12.3 297 21.7
2008-06-25 07:06:14 51°16.208 2°39.837 294.4 12.3 296 21.4
2008-06-25 07:06:19 51°16.215 2°39.812 294.3 12.3 296 21.4
2008-06-25 07:06:24 51°16.222 2°39.788 294.3 12.2 295 21.4
2008-06-25 07:06:29 51°16.229 2°39.764 293.4 12.2 296 21.4
2008-06-25 07:06:34 51°16.236 2°39.739 293.5 12.2 295 21.3
2008-06-25 07:06:39 51°16.244 2°39.714 293.6 12.3 296 21.4
2008-06-25 07:06:44 51°16.251 2°39.689 293.7 12.2 294 21.1
2008-06-25 07:06:49 51°16.259 2°39.665 293.2 12.2 296 21
2008-06-25 07:06:54 51°16.265 2°39.64 293.6 12.2 294 21
2008-06-25 07:06:59 51°16.273 2°39.616 293.2 12.3 295 20.6
2008-06-25 07:07:04 51°16.28 2°39.591 293.7 12.2 295 20.5
2008-06-25 07:07:09 51°16.287 2°39.567 293.7 12.4 294 20.5
2008-06-25 07:07:14 51°16.295 2°39.542 293.8 12.5 295 20.2
2008-06-25 07:07:19 51°16.303 2°39.519 295.3 12.3 294 19.8
2008-06-25 07:07:24 51°16.31 2°39.495 294.8 12.3 297 19.9
2008-06-25 07:07:29 51°16.318 2°39.471 296.3 12.3 298 19.4
2008-06-25 07:07:34 51°16.327 2°39.448 297.3 12.4 300 19.6
2008-06-25 07:07:39 51°16.335 2°39.424 298.9 12.4 300 19.5
2008-06-25 07:07:44 51°16.344 2°39.4 299 12.4 300 19
2008-06-25 07:07:49 51°16.353 2°39.376 298.9 12.3 300 18.9
2008-06-25 07:07:54 51°16.362 2°39.353 298.9 12.3 298 18.6
2008-06-25 07:07:59 51°16.37 2°39.329 298.6 12.4 300 18.4
2008-06-25 07:08:04 51°16.378 2°39.305 298.3 12.3 298 18.1
2008-06-25 07:08:09 51°16.386 2°39.281 298 12.3 299 17.4
2008-06-25 07:08:14 51°16.395 2°39.258 297.6 12.3 299 16.9
2008-06-25 07:08:19 51°16.403 2°39.234 298.2 12.3 299 16.5
2008-06-25 07:08:24 51°16.411 2°39.21 297.8 12.3 300 15.7
2008-06-25 07:08:29 51°16.419 2°39.186 298.3 12.3 298 15.5
2008-06-25 07:08:34 51°16.427 2°39.162 298.2 12.3 299 15.3
2008-06-25 07:08:39 51°16.435 2°39.139 298.3 12.2 298 14.6
2008-06-25 07:08:44 51°16.443 2°39.115 298 12.3 300 14.5
2008-06-25 07:08:49 51°16.452 2°39.092 298.7 12.3 299 14.4
2008-06-25 07:08:54 51°16.461 2°39.069 298.7 12.3 303 14.4
2008-06-25 07:08:59 51°16.47 2°39.046 300 12.2 300 14
2008-06-25 07:09:04 51°16.479 2°39.023 300.4 12.3 302 13.6
2008-06-25 07:09:09 51°16.488 2°39 300.7 12.3 302 13.1
2008-06-25 07:09:14 51°16.497 2°38.977 301.1 12.3 302 12.9
2008-06-25 07:09:19 51°16.507 2°38.954 301.7 12.3 303 12.4
2008-06-25 07:09:24 51°16.515 2°38.93 302.3 12.3 302 12.3
2008-06-25 07:09:29 51°16.524 2°38.907 302.1 12.2 303 12.2
2008-06-25 07:09:34 51°16.532 2°38.884 302.2 12.3 300 12
2008-06-25 07:09:39 51°16.542 2°38.861 301.1 12.3 302 11.6
2008-06-25 07:09:44 51°16.55 2°38.836 301.1 12.3 299 11.7
2008-06-25 07:09:49 51°16.558 2°38.813 300 12.2 300 11.7
2008-06-25 07:09:54 51°16.567 2°38.789 299.7 12.3 299 11.3
2008-06-25 07:09:59 51°16.575 2°38.765 298.9 12.3 298 11.2
2008-06-25 07:10:04 51°16.583 2°38.742 298.5 12.2 299 11
2008-06-25 07:10:09 51°16.59 2°38.718 298.5 12.2 297 10.6
2008-06-25 07:10:14 51°16.598 2°38.695 297.3 12.2 299 10.6
2008-06-25 07:10:19 51°16.606 2°38.67 298.8 12.1 296 10.1
2008-06-25 07:10:24 51°16.615 2°38.646 297.6 12.2 301 10.2
2008-06-25 07:10:29 51°16.623 2°38.622 298.3 12.2 297 9.7
2008-06-25 07:10:34 51°16.632 2°38.598 298.3 12.2 300 9.8
2008-06-25 07:10:39 51°16.639 2°38.574 298.3 12.2 297 9.9
2008-06-25 07:10:44 51°16.648 2°38.55 297.6 12.3 299 9.8
2008-06-25 07:10:49 51°16.656 2°38.526 298.1 12.2 298 9.8
2008-06-25 07:10:54 51°16.664 2°38.503 298.3 12.2 299 9.4
2008-06-25 07:10:59 51°16.672 2°38.479 298.3 12.4 300 9.9
2008-06-25 07:11:04 51°16.68 2°38.454 298.9 12.3 300 9.6
2008-06-25 07:11:09 51°16.688 2°38.43 299.7 12.3 300 9.3
2008-06-25 07:11:14 51°16.698 2°38.409 299.8 12.4 301 9.6
2008-06-25 07:11:19 51°16.707 2°38.385 300.8 12.4 300 9.1
2008-06-25 07:11:24 51°16.715 2°38.362 301 12.4 302 9.9
2008-06-25 07:11:29 51°16.724 2°38.339 301.7 12.4 302 10.3
2008-06-25 07:11:34 51°16.733 2°38.315 301.8 12.5 302 10.5
2008-06-25 07:11:39 51°16.743 2°38.292 302.1 12.6 303 11.4
2008-06-25 07:11:44 51°16.753 2°38.268 302.8 12.6 302 13.3
2008-06-25 07:11:49 51°16.762 2°38.244 302.2 12.7 302 15.3
2008-06-25 07:11:54 51°16.772 2°38.22 302.1 12.6 301 17.8
2008-06-25 07:11:59 51°16.781 2°38.197 302.1 12.6 303 19.2
2008-06-25 07:12:04 51°16.79 2°38.173 301.7 12.5 302 20.6
2008-06-25 07:12:09 51°16.799 2°38.149 301 12.5 301 21.4
2008-06-25 07:12:14 51°16.808 2°38.126 300.2 12.4 300 22.4
2008-06-25 07:12:19 51°16.817 2°38.102 299.6 12.4 299 22.7
2008-06-25 07:12:24 51°16.825 2°38.078 298.5 12.4 301 24.1
2008-06-25 07:12:29 51°16.833 2°38.054 298.6 12.4 299 24.9
2008-06-25 07:12:34 51°16.842 2°38.03 298.2 12.4 300 24.5
2008-06-25 07:12:39 51°16.85 2°38.006 298.3 12.4 298 25.4
2008-06-25 07:12:44 51°16.859 2°37.983 297.6 12.3 300 25.5
2008-06-25 07:12:49 51°16.868 2°37.959 297.7 12.3 300 25.9
2008-06-25 07:12:54 51°16.877 2°37.935 298.3 12.3 300 26
2008-06-25 07:12:59 51°16.885 2°37.911 298.2 12.3 300 26.8
2008-06-25 07:13:04 51°16.894 2°37.889 298.5 12.2 302 26.9
2008-06-25 07:13:09 51°16.903 2°37.865 299.1 12.4 301 27.2
2008-06-25 07:13:14 51°16.913 2°37.842 299.6 12.2 302 27.6
2008-06-25 07:13:19 51°16.922 2°37.818 300.4 12.3 302 27.7
2008-06-25 07:13:24 51°16.931 2°37.796 300.3 12.2 303 27.7
2008-06-25 07:13:29 51°16.94 2°37.772 301 12.4 302 28
2008-06-25 07:13:34 51°16.949 2°37.75 300.4 12.2 303 27.8
2008-06-25 07:13:39 51°16.957 2°37.727 300.4 12.4 302 27.7
2008-06-25 07:13:44 51°16.967 2°37.704 300.2 12.4 304 28
2008-06-25 07:13:49 51°16.975 2°37.68 300.3 12.3 300 28
2008-06-25 07:13:54 51°16.984 2°37.657 298.9 12.4 303 28.1
2008-06-25 07:13:59 51°16.993 2°37.634 299.7 12.3 301 28.2
2008-06-25 07:14:04 51°17.002 2°37.611 299.7 12.3 302 28.4
2008-06-25 07:14:09 51°17.011 2°37.588 300 12.3 302 28.5
2008-06-25 07:14:14 51°17.02 2°37.564 300.1 12.2 299 28.3
2008-06-25 07:14:19 51°17.029 2°37.542 298.5 12.2 302 28.4
2008-06-25 07:14:24 51°17.037 2°37.518 298.8 12.2 299 28.3
2008-06-25 07:14:29 51°17.045 2°37.495 297.7 12.2 302 28
2008-06-25 07:14:34 51°17.054 2°37.471 298.5 12.2 299 27.9
2008-06-25 07:14:39 51°17.062 2°37.448 298.4 12.2 302 27.6
2008-06-25 07:14:44 51°17.071 2°37.425 299 12.2 301 27.3
2008-06-25 07:14:49 51°17.08 2°37.402 299.7 12.2 300 27.3
2008-06-25 07:14:54 51°17.089 2°37.379 299.7 12.2 301 27
2008-06-25 07:14:59 51°17.098 2°37.356 300 12.2 301 27.3
2008-06-25 07:15:04 51°17.106 2°37.333 300.4 12.3 302 27.4
2008-06-25 07:15:09 51°17.115 2°37.309 300.7 12.3 301 27.5
2008-06-25 07:15:14 51°17.124 2°37.286 300.3 12.4 302 27.4
2008-06-25 07:15:19 51°17.133 2°37.263 300.8 12.3 303 27.5
2008-06-25 07:15:24 51°17.142 2°37.24 301.3 12.3 302 27.4
2008-06-25 07:15:29 51°17.151 2°37.217 300.8 12.2 301 27.3
2008-06-25 07:15:34 51°17.161 2°37.194 300.6 12.2 301 27.5
2008-06-25 07:15:39 51°17.169 2°37.171 300.5 12.3 302 27.5
2008-06-25 07:15:44 51°17.179 2°37.148 300.4 12.3 302 27.4
2008-06-25 07:15:49 51°17.187 2°37.124 300.9 12.2 301 27.3
2008-06-25 07:15:54 51°17.196 2°37.101 299.8 12.2 300 27.4
2008-06-25 07:15:59 51°17.204 2°37.078 299.3 12.2 299 27.6
2008-06-25 07:16:04 51°17.213 2°37.054 298.8 12.2 300 27.5
2008-06-25 07:16:09 51°17.221 2°37.031 298.1 12.2 298 27.5
2008-06-25 07:16:14 51°17.229 2°37.007 297.8 12.2 298 27.6
2008-06-25 07:16:19 51°17.237 2°36.983 297.3 12.3 299 27.4
2008-06-25 07:16:24 51°17.245 2°36.96 297.5 12.2 298 27.6
2008-06-25 07:16:29 51°17.253 2°36.936 297.8 12.3 301 27.7
2008-06-25 07:16:34 51°17.262 2°36.913 298.9 12.3 299 27.6
2008-06-25 07:16:39 51°17.271 2°36.889 299.5 12.4 301 27.4
2008-06-25 07:16:44 51°17.279 2°36.866 300.2 12.3 301 27.2
2008-06-25 07:16:49 51°17.288 2°36.842 300.4 12.4 301 27.1
2008-06-25 07:16:54 51°17.297 2°36.819 300.3 12.4 301 27.3
2008-06-25 07:16:59 51°17.306 2°36.795 300.5 12.4 301 27.4
2008-06-25 07:17:04 51°17.315 2°36.772 300.4 12.4 302 27.1
2008-06-25 07:17:09 51°17.324 2°36.749 300.9 12.4 302 26.5
2008-06-25 07:17:14 51°17.333 2°36.725 301.4 12.4 301 26.8
2008-06-25 07:17:19 51°17.342 2°36.702 300.3 12.4 302 26.6
2008-06-25 07:17:24 51°17.35 2°36.678 300.3 12.3 297 26.5
2008-06-25 07:17:29 51°17.358 2°36.654 298.4 12.4 300 26.1
2008-06-25 07:17:34 51°17.366 2°36.63 298.1 12.3 296 25.2
2008-06-25 07:17:39 51°17.374 2°36.606 296.6 12.3 297 25.4
2008-06-25 07:17:44 51°17.381 2°36.581 296.2 12.3 296 25.1
2008-06-25 07:17:49 51°17.389 2°36.557 296 12.3 297 24.4
2008-06-25 07:17:54 51°17.397 2°36.533 296.4 12.3 297 23.9
2008-06-25 07:17:59 51°17.405 2°36.509 297 12.3 297 23.6
2008-06-25 07:18:04 51°17.412 2°36.484 297.4 12.3 296 23.3
2008-06-25 07:18:09 51°17.42 2°36.46 296.4 12.3 298 22.6
2008-06-25 07:18:14 51°17.428 2°36.436 296 12.3 295 21.5
2008-06-25 07:18:19 51°17.435 2°36.411 296 12.3 296 21.9
2008-06-25 07:18:24 51°17.442 2°36.387 295.5 12.3 295 21.2
2008-06-25 07:18:29 51°17.45 2°36.362 294.8 12.3 295 20.6
2008-06-25 07:18:34 51°17.457 2°36.338 295.1 12.3 296 20.4
2008-06-25 07:18:39 51°17.464 2°36.313 295 12.3 295 19.7
2008-06-25 07:18:44 51°17.472 2°36.288 295 12.3 296 19.3
2008-06-25 07:18:49 51°17.479 2°36.264 294.8 12.3 296 19.1
2008-06-25 07:18:54 51°17.486 2°36.24 295.4 12.2 295 18.9
2008-06-25 07:18:59 51°17.493 2°36.215 295.5 12.3 295 18.2
2008-06-25 07:19:04 51°17.501 2°36.191 295.4 12.3 297 17.9
2008-06-25 07:19:09 51°17.508 2°36.166 296 12.3 296 17.2
2008-06-25 07:19:14 51°17.516 2°36.142 296 12.4 296 16.9
2008-06-25 07:19:19 51°17.523 2°36.117 296 12.3 296 16.6
2008-06-25 07:19:24 51°17.531 2°36.093 295.9 12.2 296 16.5
2008-06-25 07:19:29 51°17.538 2°36.069 295.8 12.2 296 15.8
2008-06-25 07:19:34 51°17.546 2°36.044 295.8 12.3 297 16.1
2008-06-25 07:19:39 51°17.553 2°36.02 296.2 12.3 297 15.4
2008-06-25 07:19:44 51°17.561 2°35.996 296.8 12.2 297 15
2008-06-25 07:19:49 51°17.569 2°35.972 297 12.3 299 14.4
2008-06-25 07:19:54 51°17.577 2°35.948 297.8 12.3 299 14.3
2008-06-25 07:19:59 51°17.585 2°35.924 298.8 12.3 297 14.3
2008-06-25 07:20:04 51°17.593 2°35.9 298.3 12.3 300 13.9
2008-06-25 07:20:09 51°17.601 2°35.876 298.6 12.2 298 13.7
2008-06-25 07:20:14 51°17.61 2°35.853 298.6 12.3 299 13.4
2008-06-25 07:20:19 51°17.618 2°35.829 298.6 12.3 297 12.5
2008-06-25 07:20:24 51°17.625 2°35.804 297.9 12.2 297 12.9
2008-06-25 07:20:29 51°17.633 2°35.781 297.1 12.2 296 12.9
2008-06-25 07:20:34 51°17.641 2°35.756 296.7 12.2 296 12
2008-06-25 07:20:39 51°17.648 2°35.732 296 12.2 296 12.3
2008-06-25 07:20:44 51°17.655 2°35.708 295.7 12.2 297 11.4
2008-06-25 07:20:49 51°17.663 2°35.684 296 12.1 296 12.3
2008-06-25 07:20:54 51°17.67 2°35.66 295.9 12.2 296 11.2
2008-06-25 07:20:59 51°17.678 2°35.636 296 12.2 296 11.5
2008-06-25 07:21:04 51°17.685 2°35.611 296 12.2 296 12.9
2008-06-25 07:21:09 51°17.693 2°35.588 295.7 12.2 297 12.8
2008-06-25 07:21:14 51°17.7 2°35.563 296.1 12.2 295 11.9
2008-06-25 07:21:19 51°17.707 2°35.539 295.5 12.2 297 12.5
2008-06-25 07:21:24 51°17.715 2°35.514 296 12.2 296 15.1
2008-06-25 07:21:29 51°17.722 2°35.49 295.9 12.3 297 16.1
2008-06-25 07:21:34 51°17.73 2°35.466 295.9 12.4 296 16.5
2008-06-25 07:21:39 51°17.738 2°35.441 296.4 12.3 296 17
2008-06-25 07:21:44 51°17.746 2°35.417 295.9 12.3 297 17.4
2008-06-25 07:21:49 51°17.754 2°35.393 296.5 12.3 298 17.9
2008-06-25 07:21:54 51°17.761 2°35.369 297 12.3 297 18.1
2008-06-25 07:21:59 51°17.769 2°35.345 296.6 12.2 297 17.4
2008-06-25 07:22:04 51°17.777 2°35.321 296.7 12.2 298 14.5
2008-06-25 07:22:09 51°17.785 2°35.297 296.8 12.1 298 12.2
2008-06-25 07:22:14 51°17.793 2°35.273 296.8 12.1 298 13.8
2008-06-25 07:22:19 51°17.8 2°35.25 296.8 12.1 298 15.3
2008-06-25 07:22:24 51°17.808 2°35.226 296.8 12.2 298 16.3
2008-06-25 07:22:29 51°17.816 2°35.202 296.6 12.2 296 17.1
2008-06-25 07:22:34 51°17.823 2°35.178 295.9 12.2 298 17.7
2008-06-25 07:22:39 51°17.831 2°35.154 296.2 12.2 298 18.4
2008-06-25 07:22:44 51°17.839 2°35.13 296.9 12.1 298 19
2008-06-25 07:22:49 51°17.847 2°35.106 296.9 12.2 300 20.2
2008-06-25 07:22:54 51°17.855 2°35.082 297.5 12.2 298 20.9
2008-06-25 07:22:59 51°17.864 2°35.059 297.1 12.2 298 21.5
2008-06-25 07:23:04 51°17.872 2°35.035 296.8 12.2 300 21.8
2008-06-25 07:23:09 51°17.88 2°35.011 297.4 12.1 299 21.2
2008-06-25 07:23:14 51°17.888 2°34.989 297.3 11.9 298 18.8
2008-06-25 07:23:19 51°17.895 2°34.965 297.1 11.7 299 19.2
2008-06-25 07:23:24 51°17.903 2°34.943 296.9 11.5 296 19
2008-06-25 07:23:29 51°17.909 2°34.919 294.1 11.3 293 18.9
2008-06-25 07:23:34 51°17.915 2°34.896 291.9 11.3 293 18.5
2008-06-25 07:23:39 51°17.921 2°34.873 290.6 11.2 291 17.7
2008-06-25 07:23:44 51°17.926 2°34.85 289.3 11.1 290 17.8
2008-06-25 07:23:49 51°17.931 2°34.827 288.2 11 290 18.8
2008-06-25 07:23:54 51°17.936 2°34.804 287 11 287 19.7
2008-06-25 07:23:59 51°17.941 2°34.781 285.8 11 289 21.3
2008-06-25 07:24:04 51°17.945 2°34.757 285.6 10.9 285 22.5
2008-06-25 07:24:09 51°17.95 2°34.734 284.2 11 287 23.5
2008-06-25 07:24:14 51°17.953 2°34.711 283.8 10.8 280 24.8
2008-06-25 07:24:19 51°17.955 2°34.687 280.5 10.9 280 25.9
2008-06-25 07:24:24 51°17.958 2°34.663 277.9 10.9 281 26.8
2008-06-25 07:24:29 51°17.96 2°34.639 277.5 10.9 277 27.8
2008-06-25 07:24:35 51°17.962 2°34.611 275.6 10.7 278 28.3
2008-06-25 07:24:40 51°17.964 2°34.589 275.5 10.3 276 28.2
2008-06-25 07:24:44 51°17.965 2°34.571 274.3 9.9 276 28.1
2008-06-25 07:24:50 51°17.967 2°34.546 273.7 9.6 276 28.2
2008-06-25 07:24:55 51°17.968 2°34.526 272.9 9.3 276 28.1
2008-06-25 07:24:59 51°17.969 2°34.51 272.2 9 275 24.9
2008-06-25 07:25:04 51°17.97 2°34.491 272 8.9 276 26.8
2008-06-25 07:25:09 51°17.971 2°34.471 272 8.7 275 27.8
2008-06-25 07:25:14 51°17.972 2°34.452 271.6 8.6 274 28.3
2008-06-25 07:25:19 51°17.973 2°34.434 271.6 8.3 275 28.1
2008-06-25 07:25:24 51°17.974 2°34.417 271.6 7.7 275 28.1
2008-06-25 07:25:29 51°17.975 2°34.401 271.4 7.3 274 28.3
2008-06-25 07:25:34 51°17.976 2°34.386 271.2 7 278 28.5
2008-06-25 07:25:39 51°17.977 2°34.371 271.9 6.6 275 28.4
2008-06-25 07:25:44 51°17.978 2°34.357 271.6 6.4 278 28.2
2008-06-25 07:25:49 51°17.979 2°34.344 271.9 6.1 274 28.3
2008-06-25 07:25:54 51°17.98 2°34.331 271.8 5.9 279 28.5
2008-06-25 07:26:00 51°17.981 2°34.316 272.1 5.7 274 28.5
2008-06-25 07:26:04 51°17.982 2°34.306 272.1 5.5 280 28.6
2008-06-25 07:26:09 51°17.982 2°34.294 272.3 5.3 275 28.5
2008-06-25 07:26:14 51°17.983 2°34.283 272 5.1 278 28.6
2008-06-25 07:26:19 51°17.984 2°34.273 271.2 4.8 275 28.7
2008-06-25 07:26:24 51°17.985 2°34.263 270.4 4.6 276 28.7
2008-06-25 07:26:29 51°17.985 2°34.253 269.1 4.3 272 28.6
2008-06-25 07:26:34 51°17.985 2°34.244 267.4 4.1 274 28.6
2008-06-25 07:26:40 51°17.985 2°34.234 265 3.9 266 28.6
2008-06-25 07:26:44 51°17.985 2°34.227 262.3 3.7 269 28.6
2008-06-25 07:26:49 51°17.984 2°34.22 259.4 3.3 261 28.7
2008-06-25 07:26:54 51°17.984 2°34.213 256 3.1 260 28.7
2008-06-25 07:26:59 51°17.982 2°34.207 252.2 2.9 251 28.7
2008-06-25 07:27:04 51°17.981 2°34.202 247.9 2.7 253 28.5
2008-06-25 07:27:09 51°17.98 2°34.197 243 2.5 243 28.5
2008-06-25 07:27:14 51°17.979 2°34.192 240 2.3 246 28.4
2008-06-25 07:27:19 51°17.977 2°34.188 236.8 2.2 236 28.5
2008-06-25 07:27:24 51°17.975 2°34.183 233.6 2.2 243 28.6
2008-06-25 07:27:29 51°17.974 2°34.18 232.2 2 231 28.3
2008-06-25 07:27:34 51°17.972 2°34.176 230 1.9 237 28.4
2008-06-25 07:27:39 51°17.97 2°34.174 228.6 1.8 225 28.5
2008-06-25 07:27:44 51°17.969 2°34.17 227.4 1.8 235 28.2
2008-06-25 07:27:49 51°17.967 2°34.168 226.4 1.7 227 28.3
2008-06-25 07:27:54 51°17.966 2°34.165 225.6 1.7 231 28.3
2008-06-25 07:27:59 51°17.964 2°34.163 224.6 1.6 220 28.5
2008-06-25 07:28:04 51°17.963 2°34.16 224.1 1.5 228 28.5
2008-06-25 07:28:09 51°17.961 2°34.158 223.8 1.5 224 28.6
2008-06-25 07:28:14 51°17.96 2°34.155 223.8 1.5 226 28.5
2008-06-25 07:28:19 51°17.958 2°34.153 224.2 1.4 227 28.7
2008-06-25 07:28:24 51°17.957 2°34.151 225.4 1.4 226 28.6
2008-06-25 07:28:29 51°17.956 2°34.148 226.4 1.4 233 28.4
2008-06-25 07:28:34 51°17.955 2°34.146 228 1.3 230 28.6
2008-06-25 07:28:40 51°17.954 2°34.143 229.8 1.3 239 28.7
2008-06-25 07:28:44 51°17.953 2°34.141 232 1.3 235 28.4
2008-06-25 07:28:49 51°17.952 2°34.138 234.5 1.4 247 28.5
2008-06-25 07:28:54 51°17.951 2°34.136 237.1 1.4 243 28.6
2008-06-25 07:29:00 51°17.95 2°34.132 238.8 1.4 247 28
2008-06-25 07:29:04 51°17.95 2°34.13 240.4 1.4 243 27.9
2008-06-25 07:29:09 51°17.949 2°34.127 241.4 1.4 255 27.9
2008-06-25 07:29:14 51°17.948 2°34.125 242.2 1.4 242 27.8
2008-06-25 07:29:19 51°17.947 2°34.122 242.6 1.4 253 28.1
2008-06-25 07:29:24 51°17.947 2°34.119 243.1 1.5 251 27.9
2008-06-25 07:29:29 51°17.946 2°34.116 243.6 1.5 253 28.2
2008-06-25 07:29:34 51°17.946 2°34.113 243.8 1.5 250 28.3
2008-06-25 07:29:39 51°17.945 2°34.109 243.9 1.5 251 28.3
2008-06-25 07:29:44 51°17.944 2°34.106 244.1 1.5 252 28.4
2008-06-25 07:29:49 51°17.944 2°34.103 244.2 1.5 253 28.5
2008-06-25 07:29:54 51°17.943 2°34.1 244.3 1.5 254 28.3
2008-06-25 07:29:59 51°17.943 2°34.096 244.3 1.6 253 28.4
2008-06-25 07:30:04 51°17.942 2°34.093 244.4 1.6 255 28.6